createdAt,value
2019-06-07T00:01:16.355Z,4.53
2019-06-07T00:03:55.430Z,4.70
2019-06-07T00:06:32.534Z,3.77
2019-06-07T00:09:02.774Z,3.90
2019-06-07T00:14:02.558Z,3.75
2019-06-07T00:16:30.905Z,5.03
2019-06-07T00:19:02.375Z,4.37
2019-06-07T00:22:12.763Z,4.15
2019-06-07T00:24:00.938Z,4.10
2019-06-07T00:26:30.317Z,4.47
2019-06-07T00:28:58.730Z,4.50
2019-06-07T00:31:30.624Z,4.92
2019-06-07T00:33:59.035Z,4.65
2019-06-07T00:36:30.062Z,5.25
2019-06-07T00:39:01.917Z,4.20
2019-06-07T00:41:34.127Z,4.30
2019-06-07T00:44:02.542Z,5.25
2019-06-07T00:46:34.816Z,5.05
2019-06-07T00:49:05.870Z,4.60
2019-06-07T00:51:50.174Z,4.55
2019-06-07T00:54:12.953Z,5.12
2019-06-07T00:56:42.405Z,4.97
2019-06-07T00:59:14.651Z,5.10
2019-06-07T01:01:45.279Z,5.40
2019-06-07T01:04:17.746Z,5.17
2019-06-07T01:06:45.901Z,5.50
2019-06-07T01:09:15.322Z,5.78
2019-06-07T01:11:48.573Z,5.25
2019-06-07T01:14:24.067Z,5.73
2019-06-07T01:16:59.372Z,5.85
2019-06-07T01:19:27.552Z,5.67
2019-06-07T01:21:56.273Z,5.08
2019-06-07T01:24:38.476Z,5.37
2019-06-07T01:27:10.103Z,5.37
2019-06-07T01:29:38.509Z,5.63
2019-06-07T01:32:10.677Z,5.70
2019-06-07T01:34:45.450Z,5.33
2019-06-07T01:37:16.855Z,6.17
2019-06-07T01:39:48.431Z,5.70
2019-06-07T01:42:18.172Z,5.62
2019-06-07T01:44:51.235Z,6.28
2019-06-07T01:47:21.195Z,6.03
2019-06-07T01:49:52.974Z,5.33
2019-06-07T01:52:26.871Z,6.10
2019-06-07T01:54:59.325Z,5.25
2019-06-07T01:57:45.473Z,5.95
2019-06-07T02:00:11.996Z,6.10
2019-06-07T02:02:40.406Z,6.15
2019-06-07T02:05:10.146Z,7.17
2019-06-07T02:07:39.699Z,6.17
2019-06-07T02:10:09.349Z,6.20
2019-06-07T02:12:43.454Z,6.37
2019-06-07T02:15:13.715Z,7.33
2019-06-07T02:17:43.025Z,7.12
2019-06-07T02:20:22.940Z,7.22
2019-06-07T02:22:49.734Z,7.65
2019-06-07T02:25:42.262Z,6.65
2019-06-07T02:28:25.971Z,6.77
2019-06-07T02:30:53.226Z,7.65
2019-06-07T02:32:58.017Z,6.65
2019-06-07T02:35:34.877Z,7.12
2019-06-07T02:37:59.227Z,7.90
2019-06-07T02:40:36.972Z,7.33
2019-06-07T02:43:05.396Z,6.27
2019-06-07T02:45:42.144Z,6.92
2019-06-07T02:48:08.309Z,6.20
2019-06-07T02:50:43.980Z,7.03
2019-06-07T02:53:12.401Z,5.77
2019-06-07T02:56:26.892Z,7.03
2019-06-07T02:58:21.518Z,7.55
2019-06-07T03:01:08.880Z,6.62
2019-06-07T03:03:22.425Z,5.90
2019-06-07T03:05:52.068Z,5.67
2019-06-07T03:08:20.538Z,5.85
2019-06-07T03:10:53.857Z,6.10
2019-06-07T03:13:28.927Z,5.72
2019-06-07T03:16:03.524Z,5.65
2019-06-07T03:18:51.799Z,5.83
2019-06-07T03:21:31.488Z,5.45
2019-06-07T03:24:03.596Z,6.37
2019-06-07T03:26:45.754Z,6.77
2019-06-07T03:29:03.628Z,6.08
2019-06-07T03:31:45.947Z,6.47
2019-06-07T03:34:09.359Z,5.83
2019-06-07T03:36:41.558Z,6.37
2019-06-07T03:39:09.987Z,6.78
2019-06-07T03:42:04.736Z,6.67
2019-06-07T03:44:12.637Z,6.73
2019-06-07T03:46:45.356Z,6.70
2019-06-07T03:49:17.957Z,6.65
2019-06-07T03:51:46.351Z,6.53
2019-06-07T03:54:17.470Z,6.58
2019-06-07T03:56:48.223Z,6.83
2019-06-07T03:59:16.663Z,6.95
2019-06-07T04:01:47.842Z,6.60
2019-06-07T04:04:16.258Z,7.00
2019-06-07T04:06:44.695Z,7.33
2019-06-07T04:09:18.374Z,8.03
2019-06-07T04:11:46.777Z,7.33
2019-06-07T04:14:16.234Z,7.30
2019-06-07T04:16:45.172Z,7.00
2019-06-07T04:19:18.219Z,6.78
2019-06-07T04:21:47.574Z,7.08
2019-06-07T04:24:18.489Z,6.55
2019-06-07T04:26:50.681Z,7.08
2019-06-07T04:31:56.883Z,6.70
2019-06-07T04:34:25.300Z,6.60
2019-06-07T04:36:59.740Z,6.87
2019-06-07T04:39:35.818Z,5.80
2019-06-07T04:42:06.003Z,5.90
2019-06-07T04:44:42.574Z,6.67
2019-06-07T04:47:17.287Z,6.50
2019-06-07T04:49:48.536Z,6.17
2019-06-07T04:52:19.517Z,6.93
2019-06-07T04:54:51.041Z,6.65
2019-06-07T04:57:19.449Z,6.17
2019-06-07T05:00:11.736Z,6.17
2019-06-07T05:02:23.323Z,5.65
2019-06-07T05:04:52.899Z,4.75
2019-06-07T05:07:22.341Z,4.20
2019-06-07T05:09:53.176Z,4.33
2019-06-07T05:12:21.580Z,3.80
2019-06-07T05:14:49.997Z,2.70
2019-06-07T05:17:20.976Z,3.08
2019-06-07T05:19:54.020Z,3.00
2019-06-07T05:22:31.664Z,2.67
2019-06-07T05:25:01.634Z,2.50
2019-06-07T05:27:38.588Z,2.42
2019-06-07T05:30:56.954Z,2.10
2019-06-07T05:32:50.966Z,2.40
2019-06-07T05:35:19.521Z,2.65
2019-06-07T05:37:47.888Z,2.40
2019-06-07T05:40:24.608Z,2.60
2019-06-07T05:42:58.386Z,2.40
2019-06-07T05:45:39.131Z,2.02
2019-06-07T05:48:12.243Z,2.27
2019-06-07T05:50:55.430Z,2.30
2019-06-07T05:53:14.874Z,3.40
2019-06-07T05:55:51.304Z,1.67
2019-06-07T05:58:22.854Z,1.80
2019-06-07T06:00:54.281Z,1.98
2019-06-07T06:03:29.138Z,2.17
2019-06-07T06:06:01.956Z,1.75
2019-06-07T06:08:36.671Z,1.67
2019-06-07T06:11:10.922Z,1.52
2019-06-07T06:14:04.669Z,1.77
2019-06-07T06:16:14.276Z,1.30
2019-06-07T06:18:51.101Z,1.80
2019-06-07T06:21:45.233Z,1.40
2019-06-07T06:24:17.307Z,1.10
2019-06-07T06:26:57.042Z,1.60
2019-06-07T06:29:26.014Z,1.40
2019-06-07T06:32:40.541Z,1.32
2019-06-07T06:34:46.959Z,1.20
2019-06-07T06:37:24.793Z,1.50
2019-06-07T06:39:52.021Z,1.35
2019-06-07T06:42:21.513Z,1.35
2019-06-07T06:44:56.364Z,1.10
2019-06-07T06:47:32.633Z,1.45
2019-06-07T06:50:05.383Z,1.25
2019-06-07T06:52:46.231Z,1.10
2019-06-07T06:55:15.450Z,1.20
2019-06-07T06:57:43.844Z,1.00
2019-06-07T07:00:21.544Z,1.30
2019-06-07T07:03:40.690Z,1.20
2019-06-07T07:05:31.918Z,1.60
2019-06-07T07:08:00.499Z,1.25
2019-06-07T07:10:43.311Z,1.10
2019-06-07T07:13:12.430Z,1.12
2019-06-07T07:15:42.813Z,1.20
2019-06-07T07:18:13.773Z,1.10
2019-06-07T07:20:43.522Z,1.50
2019-06-07T07:23:12.299Z,1.05
2019-06-07T07:25:46.041Z,0.85
2019-06-07T07:28:14.257Z,1.12
2019-06-07T07:30:55.380Z,0.90
2019-06-07T07:34:20.594Z,0.80
2019-06-07T07:36:23.272Z,1.17
2019-06-07T07:38:48.977Z,1.02
2019-06-07T07:41:15.627Z,0.90
2019-06-07T07:43:45.702Z,1.20
2019-06-07T07:46:29.006Z,1.10
2019-06-07T07:48:54.705Z,1.20
2019-06-07T07:51:27.807Z,1.27
2019-06-07T07:54:10.223Z,1.50
2019-06-07T07:56:27.460Z,1.37
2019-06-07T07:59:01.469Z,1.87
2019-06-07T08:01:28.679Z,1.42
2019-06-07T08:04:04.720Z,1.42
2019-06-07T08:06:35.574Z,1.47
2019-06-07T08:09:05.652Z,1.35
2019-06-07T08:11:35.117Z,1.12
2019-06-07T08:14:08.104Z,1.02
2019-06-07T08:16:37.513Z,1.17
2019-06-07T08:19:18.259Z,0.78
2019-06-07T08:21:50.608Z,1.00
2019-06-07T08:24:19.994Z,1.30
2019-06-07T08:27:12.306Z,1.25
2019-06-07T08:29:22.350Z,1.40
2019-06-07T08:31:58.710Z,1.15
2019-06-07T08:34:29.903Z,1.70
2019-06-07T08:37:00.119Z,1.25
2019-06-07T08:39:27.500Z,1.40
2019-06-07T08:42:14.118Z,1.80
2019-06-07T08:44:28.286Z,1.35
2019-06-07T08:47:16.675Z,1.70
2019-06-07T08:49:26.847Z,1.22
2019-06-07T08:52:09.729Z,1.12
2019-06-07T08:54:29.483Z,1.20
2019-06-07T08:57:17.986Z,1.30
2019-06-07T08:59:28.043Z,1.25
2019-06-07T09:02:04.223Z,1.27
2019-06-07T09:04:36.963Z,1.30
2019-06-07T09:07:19.464Z,1.40
2019-06-07T09:09:47.521Z,1.50
2019-06-07T09:12:16.023Z,2.20
2019-06-07T09:14:59.582Z,1.80
2019-06-07T09:17:18.385Z,1.30
2019-06-07T09:22:17.864Z,1.50
2019-06-07T09:24:46.307Z,1.40
2019-06-07T09:27:15.335Z,1.45
2019-06-07T09:29:44.589Z,1.65
2019-06-07T09:32:18.694Z,1.33
2019-06-07T09:34:47.256Z,1.27
2019-06-07T09:39:54.386Z,1.20
2019-06-07T09:42:26.935Z,1.15
2019-06-07T09:44:57.021Z,1.30
2019-06-07T09:47:32.824Z,1.10
2019-06-07T09:50:08.303Z,1.05
2019-06-07T09:52:29.750Z,1.30
2019-06-07T09:55:09.362Z,1.37
2019-06-07T09:57:34.047Z,1.30
2019-06-07T10:00:38.183Z,1.62
2019-06-07T10:02:35.770Z,1.60
2019-06-07T10:05:12.178Z,1.25
2019-06-07T10:07:59.181Z,1.30
2019-06-07T10:12:45.929Z,1.40
2019-06-07T10:15:14.489Z,1.50
2019-06-07T10:17:42.920Z,1.70
2019-06-07T10:20:13.076Z,1.30
2019-06-07T10:22:43.890Z,0.93
2019-06-07T10:25:12.467Z,1.30
2019-06-07T10:27:43.391Z,1.30
2019-06-07T10:30:13.195Z,2.02
2019-06-07T10:32:52.078Z,1.47
2019-06-07T10:35:18.741Z,1.70
2019-06-07T10:37:53.289Z,1.50
2019-06-07T10:40:25.424Z,1.40
2019-06-07T10:42:58.689Z,1.40
2019-06-07T10:45:27.080Z,1.50
2019-06-07T10:47:55.497Z,1.60
2019-06-07T10:50:23.986Z,1.40
2019-06-07T10:53:10.713Z,1.30
2019-06-07T10:55:40.293Z,1.12
2019-06-07T10:58:09.199Z,1.27
2019-06-07T11:00:37.693Z,1.17
2019-06-07T11:03:11.839Z,1.27
2019-06-07T11:05:41.381Z,1.20
2019-06-07T11:08:10.242Z,0.98
2019-06-07T11:10:38.786Z,1.00
2019-06-07T11:13:08.245Z,1.10
2019-06-07T11:15:36.860Z,1.37
2019-06-07T11:18:06.377Z,1.45
2019-06-07T11:20:35.594Z,1.07
2019-06-07T11:23:10.121Z,1.50
2019-06-07T11:25:42.037Z,1.22
2019-06-07T11:28:18.711Z,1.50
2019-06-07T11:30:52.200Z,1.35
2019-06-07T11:33:24.993Z,1.50
2019-06-07T11:35:54.321Z,1.65
2019-06-07T11:38:26.613Z,2.10
2019-06-07T11:43:33.572Z,1.25
2019-06-07T11:46:01.986Z,1.40
2019-06-07T11:48:30.466Z,1.65
2019-06-07T11:51:08.636Z,1.25
2019-06-07T11:53:56.197Z,1.32
2019-06-07T11:58:54.951Z,1.60
2019-06-07T12:01:23.380Z,1.60
2019-06-07T12:03:58.778Z,1.57
2019-06-07T12:06:21.961Z,1.27
2019-06-07T12:08:50.406Z,1.30
2019-06-07T12:11:23.071Z,1.40
2019-06-07T12:13:55.257Z,1.15
2019-06-07T12:21:23.964Z,1.47
2019-06-07T12:23:52.558Z,1.00
2019-06-07T12:26:38.323Z,1.00
2019-06-07T12:29:06.750Z,1.35
2019-06-07T12:31:43.747Z,1.00
2019-06-07T12:34:25.254Z,1.20
2019-06-07T12:36:59.107Z,1.27
2019-06-07T12:39:34.335Z,1.40
2019-06-07T12:42:02.773Z,1.30
2019-06-07T12:44:34.696Z,1.07
2019-06-07T12:47:09.456Z,1.20
2019-06-07T12:49:37.870Z,1.27
2019-06-07T12:52:07.918Z,1.20
2019-06-07T12:54:40.432Z,1.85
2019-06-07T12:57:08.835Z,1.50
2019-06-07T12:59:41.042Z,1.00
2019-06-07T13:04:38.033Z,1.17
2019-06-07T13:07:06.678Z,1.17
2019-06-07T13:09:51.809Z,1.07
2019-06-07T13:12:24.489Z,1.27
2019-06-07T13:14:52.927Z,1.10
2019-06-07T13:17:22.277Z,0.98
2019-06-07T13:19:53.413Z,1.10
2019-06-07T13:22:22.306Z,1.07
2019-06-07T13:24:50.875Z,1.10
2019-06-07T13:27:20.439Z,0.90
2019-06-07T13:29:51.951Z,0.88
2019-06-07T13:32:28.162Z,1.05
2019-06-07T13:35:20.475Z,1.22
2019-06-07T13:37:59.817Z,0.90
2019-06-07T13:40:33.856Z,0.90
2019-06-07T13:43:17.260Z,0.95
2019-06-07T13:45:49.460Z,1.25
2019-06-07T13:48:32.493Z,1.30
2019-06-07T13:51:12.711Z,0.98
2019-06-07T13:53:53.560Z,1.00
2019-06-07T13:56:37.098Z,0.95
2019-06-07T13:59:09.528Z,1.07
2019-06-07T14:01:47.374Z,1.10
2019-06-07T14:04:24.890Z,1.10
2019-06-07T14:07:08.974Z,1.02
2019-06-07T14:09:29.870Z,1.30
2019-06-07T14:12:06.541Z,1.10
2019-06-07T14:14:39.633Z,1.20
2019-06-07T14:20:09.832Z,1.20
2019-06-07T14:22:48.916Z,1.37
2019-06-07T14:25:25.131Z,1.52
2019-06-07T14:27:57.087Z,1.35
2019-06-07T14:30:33.389Z,1.55
2019-06-07T14:33:09.483Z,1.07
2019-06-07T14:35:51.618Z,1.55
2019-06-07T14:38:24.900Z,1.10
2019-06-07T14:40:55.769Z,1.40
2019-06-07T14:43:25.113Z,1.27
2019-06-07T14:45:56.776Z,1.20
2019-06-07T14:48:36.788Z,1.27
2019-06-07T14:51:05.448Z,1.20
2019-06-07T14:53:36.402Z,1.10
2019-06-07T14:56:14.174Z,1.10
2019-06-07T15:02:50.174Z,1.00
2019-06-07T15:10:35.232Z,1.20
2019-06-07T15:19:16.341Z,1.60
2019-06-07T15:23:39.358Z,1.15
2019-06-07T15:25:31.179Z,1.37
2019-06-07T15:28:24.345Z,1.30
2019-06-07T15:30:52.775Z,1.12
2019-06-07T15:33:24.276Z,1.20
2019-06-07T15:36:19.829Z,1.27
2019-06-07T15:38:47.931Z,1.13
2019-06-07T15:41:16.324Z,1.22
2019-06-07T15:43:44.724Z,1.40
2019-06-07T15:46:42.442Z,1.22
2019-06-07T15:49:12.028Z,1.37
2019-06-07T15:51:40.976Z,1.17
2019-06-07T15:54:09.707Z,1.45
2019-06-07T15:56:39.176Z,1.22
2019-06-07T15:59:08.670Z,0.98
2019-06-07T16:01:37.674Z,1.30
2019-06-07T16:04:06.185Z,1.07
2019-06-07T16:06:43.369Z,0.85
2019-06-07T16:09:08.544Z,1.80
2019-06-07T16:11:37.294Z,1.65
2019-06-07T16:14:09.868Z,1.32
2019-06-07T16:16:43.411Z,1.60
2019-06-07T16:19:11.916Z,1.37
2019-06-07T16:21:41.482Z,1.25
2019-06-07T16:24:11.986Z,1.57
2019-06-07T16:27:01.615Z,1.27
2019-06-07T16:29:34.572Z,1.27
2019-06-07T16:32:06.567Z,1.30
2019-06-07T16:34:35.092Z,1.37
2019-06-07T16:37:03.642Z,1.40
2019-06-07T16:39:33.061Z,1.40
2019-06-07T16:42:04.654Z,1.20
2019-06-07T16:44:33.129Z,1.20
2019-06-07T16:47:04.384Z,1.40
2019-06-07T16:49:32.935Z,1.27
2019-06-07T16:52:04.233Z,3.77
2019-06-07T16:54:35.640Z,1.30
2019-06-07T16:57:19.945Z,1.60
2019-06-07T16:59:51.187Z,2.02
2019-06-07T17:02:21.804Z,2.17
2019-06-07T17:04:51.301Z,2.08
2019-06-07T17:07:24.679Z,2.20
2019-06-07T17:09:56.869Z,3.17
2019-06-07T17:12:28.172Z,2.10
2019-06-07T17:15:07.735Z,2.33
2019-06-07T17:17:41.019Z,7.37
2019-06-07T17:20:24.601Z,3.22
2019-06-07T17:22:49.784Z,3.05
2019-06-07T17:25:21.382Z,3.25
2019-06-07T17:27:59.126Z,3.30
2019-06-07T17:30:27.606Z,2.80
2019-06-07T17:32:59.440Z,2.90
2019-06-07T17:35:32.107Z,3.30
2019-06-07T17:38:04.955Z,2.62
2019-06-07T17:40:33.685Z,2.47
2019-06-07T17:43:02.225Z,2.30
2019-06-07T17:45:35.558Z,2.75
2019-06-07T17:48:02.778Z,2.80
2019-06-07T17:50:31.474Z,2.77
2019-06-07T17:53:02.837Z,3.15
2019-06-07T17:55:31.612Z,2.70
2019-06-07T17:58:02.742Z,2.87
2019-06-07T18:00:53.095Z,2.92
2019-06-07T18:03:28.643Z,2.80
2019-06-07T18:06:00.799Z,2.90
2019-06-07T18:08:30.429Z,2.80
2019-06-07T18:11:03.565Z,2.55
2019-06-07T18:13:32.125Z,2.80
2019-06-07T18:16:00.550Z,2.47
2019-06-07T18:18:28.950Z,2.20
2019-06-07T18:21:00.022Z,2.05
2019-06-07T18:23:34.519Z,2.60
2019-06-07T18:26:03.939Z,2.92
2019-06-07T18:28:32.358Z,2.83
2019-06-07T18:31:03.538Z,2.27
2019-06-07T18:33:38.283Z,2.60
2019-06-07T18:36:06.691Z,2.35
2019-06-07T18:38:35.111Z,2.92
2019-06-07T18:41:03.523Z,2.95
2019-06-07T18:43:31.928Z,2.92
2019-06-07T18:46:00.410Z,3.20
2019-06-07T18:48:33.071Z,2.65
2019-06-07T18:51:07.502Z,2.85
2019-06-07T18:53:39.431Z,3.40
2019-06-07T18:56:18.906Z,3.83
2019-06-07T18:58:55.311Z,3.70
2019-06-07T19:01:30.064Z,3.42
2019-06-07T19:04:02.956Z,3.12
2019-06-07T19:06:32.348Z,4.28
2019-06-07T19:09:01.662Z,4.65
2019-06-07T19:11:37.817Z,4.25
2019-06-07T19:14:11.024Z,3.90
2019-06-07T19:16:40.905Z,4.08
2019-06-07T19:19:14.811Z,3.33
2019-06-07T19:21:43.430Z,4.10
2019-06-07T19:24:14.746Z,4.58
2019-06-07T19:26:47.885Z,4.37
2019-06-07T19:29:24.420Z,4.67
2019-06-07T19:31:52.993Z,4.50
2019-06-07T19:34:31.248Z,4.80
2019-06-07T19:37:02.193Z,4.67
2019-06-07T19:39:37.108Z,4.85
2019-06-07T19:42:09.931Z,5.30
2019-06-07T19:44:52.069Z,5.08
2019-06-07T19:47:12.571Z,5.73
2019-06-07T19:49:46.522Z,6.30
2019-06-07T19:52:23.959Z,5.83
2019-06-07T19:54:53.733Z,5.97
2019-06-07T19:57:22.299Z,6.22
2019-06-07T19:59:50.711Z,6.53
2019-06-07T20:02:19.136Z,7.30
2019-06-07T20:04:48.473Z,7.08
2019-06-07T20:07:17.001Z,6.58
2019-06-07T20:09:46.520Z,7.05
2019-06-07T20:12:20.903Z,7.55
2019-06-07T20:14:49.319Z,8.63
2019-06-07T20:17:19.812Z,8.20
2019-06-07T20:19:49.345Z,7.70
2019-06-07T20:22:19.117Z,8.28
2019-06-07T20:25:07.242Z,8.58
2019-06-07T20:27:37.794Z,11.25
2019-06-07T20:30:08.581Z,8.20
2019-06-07T20:32:37.087Z,8.70
2019-06-07T20:35:06.334Z,9.60
2019-06-07T20:37:34.742Z,9.85
2019-06-07T20:40:22.950Z,9.23
2019-06-07T20:42:41.383Z,8.98
2019-06-07T20:45:14.906Z,9.30
2019-06-07T20:47:45.816Z,9.23
2019-06-07T20:50:20.093Z,8.93
2019-06-07T20:52:48.514Z,9.13
2019-06-07T20:55:17.256Z,8.80
2019-06-07T20:57:45.714Z,9.40
2019-06-07T21:00:21.971Z,8.95
2019-06-07T21:02:49.824Z,8.90
2019-06-07T21:05:18.233Z,9.05
2019-06-07T21:07:49.097Z,9.33
2019-06-07T21:10:18.676Z,9.08
2019-06-07T21:12:49.975Z,9.00
2019-06-07T21:15:26.391Z,9.50
2019-06-07T21:17:57.372Z,10.03
2019-06-07T21:20:33.873Z,10.20
2019-06-07T21:23:02.795Z,9.45
2019-06-07T21:25:31.208Z,10.03
2019-06-07T21:28:00.915Z,10.13
2019-06-07T21:30:34.151Z,11.60
2019-06-07T21:33:03.591Z,12.13
2019-06-07T21:35:33.771Z,14.45
2019-06-07T21:38:09.842Z,14.05
2019-06-07T21:40:39.440Z,14.15
2019-06-07T21:43:08.735Z,14.60
2019-06-07T21:45:41.340Z,14.78
2019-06-07T21:48:11.605Z,15.43
2019-06-07T21:50:44.696Z,16.52
2019-06-07T21:53:13.095Z,16.15
2019-06-07T21:55:43.462Z,17.45
2019-06-07T21:58:14.582Z,17.90
2019-06-07T22:01:04.028Z,17.90
2019-06-07T22:03:35.127Z,20.32
2019-06-07T22:06:03.553Z,20.90
2019-06-07T22:08:34.513Z,19.25
2019-06-07T22:11:04.036Z,20.30
2019-06-07T22:13:37.475Z,20.08
2019-06-07T22:16:27.957Z,22.40
2019-06-07T22:18:48.390Z,21.10
2019-06-07T22:21:16.800Z,23.40
2019-06-07T22:23:48.703Z,22.07
2019-06-07T22:26:18.126Z,23.25
2019-06-07T22:28:46.540Z,20.92
2019-06-07T22:31:15.091Z,21.42
2019-06-07T22:33:43.464Z,21.40
2019-06-07T22:36:13.184Z,20.02
2019-06-07T22:38:43.559Z,18.52
2019-06-07T22:41:15.882Z,16.48
2019-06-07T22:43:46.588Z,16.40
2019-06-07T22:46:15.127Z,15.85
2019-06-07T22:48:43.600Z,16.30
2019-06-07T22:51:13.322Z,14.45
2019-06-07T22:53:46.058Z,14.05
2019-06-07T22:56:16.134Z,13.65
2019-06-07T22:58:44.522Z,12.60
2019-06-07T23:01:12.930Z,13.03
2019-06-07T23:03:46.225Z,13.68
2019-06-07T23:06:14.781Z,14.23
2019-06-07T23:08:43.236Z,14.70
2019-06-07T23:11:13.223Z,13.48
2019-06-07T23:13:41.782Z,13.62
2019-06-07T23:16:17.722Z,12.58
2019-06-07T23:18:44.464Z,11.95
2019-06-07T23:21:13.798Z,12.98
2019-06-07T23:23:42.301Z,13.13
2019-06-07T23:26:12.094Z,13.65
2019-06-07T23:28:47.026Z,13.53
2019-06-07T23:31:18.565Z,14.45
2019-06-07T23:33:47.071Z,15.40
2019-06-07T23:36:15.493Z,13.53
2019-06-07T23:38:44.914Z,14.35
2019-06-07T23:41:13.335Z,14.33
2019-06-07T23:43:41.744Z,16.17
2019-06-07T23:46:11.426Z,15.20
2019-06-07T23:48:41.928Z,14.85
2019-06-07T23:51:11.434Z,15.43
2019-06-07T23:53:39.947Z,15.13
2019-06-07T23:56:08.373Z,14.35
2019-06-07T23:58:36.770Z,15.50
